createdAt,value
2022-10-11T00:02:17.626Z,98809.63
2022-10-11T00:04:47.542Z,98814.31
2022-10-11T00:07:17.303Z,98811.53
2022-10-11T00:09:47.121Z,98807.94
2022-10-11T00:12:16.806Z,98815.44
2022-10-11T00:14:49.138Z,98805.50
2022-10-11T00:17:18.835Z,98813.72
2022-10-11T00:19:48.562Z,98813.28
2022-10-11T00:22:18.243Z,98810.25
2022-10-11T00:24:47.938Z,98809.09
2022-10-11T00:27:17.672Z,98814.19
2022-10-11T00:29:50.039Z,98807.78
2022-10-11T00:32:20.381Z,98804.31
2022-10-11T00:34:50.160Z,98814.91
2022-10-11T00:37:20.405Z,98810.91
2022-10-11T00:39:50.132Z,98816.44
2022-10-11T00:42:21.833Z,98818.44
2022-10-11T00:44:54.432Z,98825.06
2022-10-11T00:47:27.385Z,98817.97
2022-10-11T00:50:00.757Z,98814.41
2022-10-11T00:52:34.068Z,98814.78
2022-10-11T00:55:08.418Z,98824.56
2022-10-11T00:57:42.670Z,98828.09
2022-10-11T01:00:17.895Z,98824.50
2022-10-11T01:02:47.809Z,98820.19
2022-10-11T01:05:35.303Z,98829.22
2022-10-11T01:08:05.571Z,98829.59
2022-10-11T01:10:35.548Z,98830.41
2022-10-11T01:13:16.128Z,98831.19
2022-10-11T01:15:53.729Z,98827.91
2022-10-11T01:18:31.714Z,98830.66
2022-10-11T01:21:09.618Z,98830.31
2022-10-11T01:24:09.151Z,98826.66
2022-10-11T01:27:07.300Z,98840.81
2022-10-11T01:29:49.548Z,98839.63
2022-10-11T01:32:26.339Z,98836.16
2022-10-11T01:35:01.861Z,98832.63
2022-10-11T01:37:37.362Z,98842.88
2022-10-11T01:40:12.461Z,98838.88
2022-10-11T01:42:44.400Z,98840.47
2022-10-11T01:45:18.438Z,98837.00
2022-10-11T01:47:50.763Z,98828.72
2022-10-11T01:50:48.314Z,98835.81
2022-10-11T01:53:46.174Z,98836.63
2022-10-11T01:56:25.366Z,98836.31
2022-10-11T01:59:09.924Z,98845.72
2022-10-11T02:01:53.068Z,98846.06
2022-10-11T02:04:32.946Z,98842.56
2022-10-11T02:07:09.519Z,98841.84
2022-10-11T02:09:44.994Z,98844.22
2022-10-11T02:12:20.930Z,98840.28
2022-10-11T02:14:54.021Z,98842.25
2022-10-11T02:17:28.208Z,98845.78
2022-10-11T02:20:02.150Z,98830.06
2022-10-11T02:22:38.455Z,98839.88
2022-10-11T02:25:13.280Z,98837.13
2022-10-11T02:27:46.371Z,98841.84
2022-10-11T02:30:18.086Z,98844.66
2022-10-11T02:32:50.220Z,98842.63
2022-10-11T02:35:27.440Z,98846.97
2022-10-11T02:38:01.952Z,98857.56
2022-10-11T02:40:35.292Z,98847.75
2022-10-11T02:43:07.372Z,98845.06
2022-10-11T02:45:41.300Z,98851.34
2022-10-11T02:48:13.944Z,98851.72
2022-10-11T02:50:46.912Z,98852.09
2022-10-11T02:53:16.585Z,98858.75
2022-10-11T02:55:46.231Z,98857.19
2022-10-11T02:58:15.988Z,98860.31
2022-10-11T03:00:45.897Z,98856.78
2022-10-11T03:03:15.614Z,98852.81
2022-10-11T03:05:47.919Z,98859.53
2022-10-11T03:08:18.725Z,98855.25
2022-10-11T03:10:48.422Z,98860.31
2022-10-11T03:13:18.594Z,98860.31
2022-10-11T03:16:02.380Z,98873.28
2022-10-11T03:18:33.557Z,98870.13
2022-10-11T03:21:06.127Z,98876.81
2022-10-11T03:23:35.901Z,98867.00
2022-10-11T03:26:06.047Z,98876.81
2022-10-11T03:28:36.104Z,98879.56
2022-10-11T03:31:06.183Z,98869.75
2022-10-11T03:33:36.491Z,98876.53
2022-10-11T03:36:09.524Z,98880.91
2022-10-11T03:38:39.357Z,98879.00
2022-10-11T03:41:09.446Z,98884.00
2022-10-11T03:43:39.157Z,98876.88
2022-10-11T03:46:09.466Z,98878.06
2022-10-11T03:48:39.336Z,98882.38
2022-10-11T03:51:13.230Z,98884.75
2022-10-11T03:53:43.016Z,98892.59
2022-10-11T03:56:13.820Z,98887.81
2022-10-11T03:58:44.259Z,98887.81
2022-10-11T04:01:14.153Z,98896.88
2022-10-11T04:03:44.094Z,98896.91
2022-10-11T04:06:16.436Z,98894.94
2022-10-11T04:08:46.078Z,98895.00
2022-10-11T04:11:16.107Z,98893.38
2022-10-11T04:13:45.747Z,98898.47
2022-10-11T04:16:15.599Z,98897.25
2022-10-11T04:18:45.255Z,98903.59
2022-10-11T04:21:17.991Z,98900.84
2022-10-11T04:23:47.783Z,98907.91
2022-10-11T04:26:17.521Z,98912.22
2022-10-11T04:28:47.378Z,98904.72
2022-10-11T04:31:17.146Z,98908.22
2022-10-11T04:33:46.779Z,98905.13
2022-10-11T04:36:20.610Z,98907.44
2022-10-11T04:38:50.314Z,98903.88
2022-10-11T04:41:20.058Z,98908.59
2022-10-11T04:43:50.057Z,98911.31
2022-10-11T04:46:19.726Z,98909.78
2022-10-11T04:48:49.299Z,98915.69
2022-10-11T04:51:21.732Z,98914.53
2022-10-11T04:53:51.516Z,98913.75
2022-10-11T04:56:21.503Z,98914.84
2022-10-11T04:58:54.241Z,98916.06
2022-10-11T05:01:24.663Z,98920.06
2022-10-11T05:03:54.474Z,98914.53
2022-10-11T05:06:27.217Z,98917.94
2022-10-11T05:09:01.481Z,98913.28
2022-10-11T05:11:31.319Z,98930.91
2022-10-11T05:14:12.814Z,98934.78
2022-10-11T05:16:42.633Z,98922.28
2022-10-11T05:19:12.390Z,98923.13
2022-10-11T05:21:44.730Z,98924.66
2022-10-11T05:24:14.471Z,98929.03
2022-10-11T05:26:44.143Z,98927.84
2022-10-11T05:29:13.872Z,98934.94
2022-10-11T05:31:43.584Z,98931.81
2022-10-11T05:34:13.512Z,98943.69
2022-10-11T05:36:45.826Z,98947.66
2022-10-11T05:39:16.018Z,98949.19
2022-10-11T05:41:45.706Z,98949.91
2022-10-11T05:44:15.421Z,98952.31
2022-10-11T05:46:45.129Z,98950.41
2022-10-11T05:49:14.871Z,98950.75
2022-10-11T05:51:47.114Z,98962.47
2022-10-11T05:54:16.860Z,98966.75
2022-10-11T05:56:46.707Z,98966.41
2022-10-11T05:59:16.409Z,98962.41
2022-10-11T06:01:46.090Z,98978.06
2022-10-11T06:04:16.825Z,98979.88
2022-10-11T06:06:50.425Z,98991.75
2022-10-11T06:09:20.096Z,98985.88
2022-10-11T06:11:49.924Z,98991.41
2022-10-11T06:14:19.559Z,98992.28
2022-10-11T06:16:49.173Z,99000.09
2022-10-11T06:19:18.831Z,99004.69
2022-10-11T06:21:51.093Z,98998.88
2022-10-11T06:24:20.932Z,98999.22
2022-10-11T06:26:51.985Z,98999.66
2022-10-11T06:29:22.196Z,99000.44
2022-10-11T06:31:52.208Z,99011.47
2022-10-11T06:34:21.947Z,99012.25
2022-10-11T06:36:54.606Z,99016.53
2022-10-11T06:39:24.305Z,99019.69
2022-10-11T06:41:54.103Z,99018.97
2022-10-11T06:44:23.827Z,99019.72
2022-10-11T06:46:53.518Z,99018.47
2022-10-11T06:49:23.729Z,99013.06
2022-10-11T06:51:56.154Z,99026.88
2022-10-11T06:54:26.243Z,99025.28
2022-10-11T06:56:56.120Z,99028.34
2022-10-11T06:59:26.470Z,99026.13
2022-10-11T07:01:56.201Z,99030.78
2022-10-11T07:04:25.951Z,99034.81
2022-10-11T07:06:58.251Z,99031.81
2022-10-11T07:09:28.351Z,99033.38
2022-10-11T07:11:57.996Z,99045.81
2022-10-11T07:14:27.811Z,99050.03
2022-10-11T07:16:57.552Z,99054.25
2022-10-11T07:19:27.496Z,99054.16
2022-10-11T07:21:59.944Z,99049.88
2022-10-11T07:24:29.967Z,99069.22
2022-10-11T07:27:00.349Z,99059.66
2022-10-11T07:29:30.059Z,99068.38
2022-10-11T07:31:59.857Z,99056.94
2022-10-11T07:34:29.657Z,99066.78
2022-10-11T07:37:03.309Z,99064.88
2022-10-11T07:39:34.103Z,99059.81
2022-10-11T07:42:04.817Z,99067.66
2022-10-11T07:44:35.196Z,99062.97
2022-10-11T07:47:09.003Z,99066.13
2022-10-11T07:49:40.718Z,99066.03
2022-10-11T07:52:13.086Z,99071.97
2022-10-11T07:54:42.920Z,99070.44
2022-10-11T07:57:12.670Z,99074.84
2022-10-11T07:59:49.300Z,99074.50
2022-10-11T08:02:20.098Z,99079.16
2022-10-11T08:07:46.233Z,99078.38
2022-10-11T08:10:16.074Z,99067.03
2022-10-11T08:12:45.799Z,99079.66
2022-10-11T08:15:19.305Z,99082.88
2022-10-11T08:18:15.150Z,99091.09
2022-10-11T08:20:45.557Z,99075.25
2022-10-11T08:23:18.892Z,99080.41
2022-10-11T08:25:50.528Z,99083.97
2022-10-11T08:28:21.024Z,99089.16
2022-10-11T08:30:52.185Z,99084.47
2022-10-11T08:33:23.315Z,99092.38
2022-10-11T08:35:53.562Z,99087.63
2022-10-11T08:38:26.593Z,99090.53
2022-10-11T08:40:59.606Z,99096.72
2022-10-11T08:43:39.706Z,99095.88
2022-10-11T08:46:13.027Z,99092.78
2022-10-11T08:48:46.460Z,99081.84
2022-10-11T08:51:22.737Z,99079.50
2022-10-11T08:54:02.397Z,99091.63
2022-10-11T08:56:41.521Z,99090.47
2022-10-11T08:59:24.060Z,99092.47
2022-10-11T09:02:02.262Z,99092.03
2022-10-11T09:04:32.610Z,99084.88
2022-10-11T09:07:10.622Z,99092.38
2022-10-11T09:10:02.031Z,99084.84
2022-10-11T09:12:43.568Z,99092.38
2022-10-11T09:15:21.112Z,99086.88
2022-10-11T09:18:06.908Z,99083.78
2022-10-11T09:20:51.986Z,99084.22
2022-10-11T09:23:38.052Z,99094.06
2022-10-11T09:26:17.393Z,99087.44
2022-10-11T09:29:01.254Z,99080.03
2022-10-11T09:31:31.885Z,99086.34
2022-10-11T09:34:09.143Z,99089.59
2022-10-11T09:36:44.841Z,99084.00
2022-10-11T09:39:31.983Z,99084.09
2022-10-11T09:42:31.169Z,99089.66
2022-10-11T09:45:20.442Z,99086.19
2022-10-11T09:47:52.351Z,99088.47
2022-10-11T09:50:31.023Z,99093.13
2022-10-11T09:53:03.417Z,99097.91
2022-10-11T09:55:36.101Z,99094.72
2022-10-11T09:58:26.722Z,99097.06
2022-10-11T10:01:07.388Z,99097.09
2022-10-11T10:03:39.530Z,99098.25
2022-10-11T10:06:11.829Z,99105.22
2022-10-11T10:08:43.124Z,99097.41
2022-10-11T10:11:14.244Z,99102.56
2022-10-11T10:13:50.126Z,99093.56
2022-10-11T10:16:28.747Z,99096.72
2022-10-11T10:19:00.776Z,99094.75
2022-10-11T10:21:33.265Z,99106.13
2022-10-11T10:24:07.211Z,99100.25
2022-10-11T10:26:37.580Z,99091.63
2022-10-11T10:29:20.536Z,99094.34
2022-10-11T10:34:59.560Z,99091.34
2022-10-11T10:37:35.226Z,99090.56
2022-10-11T10:40:09.296Z,99095.34
2022-10-11T10:42:53.353Z,99099.38
2022-10-11T10:50:05.327Z,99100.00
2022-10-11T10:53:12.587Z,99082.66
2022-10-11T10:55:47.054Z,99096.09
2022-10-11T10:58:39.606Z,99090.56
2022-10-11T11:01:16.338Z,99097.31
2022-10-11T11:03:49.677Z,99096.19
2022-10-11T11:06:32.822Z,99093.00
2022-10-11T11:09:21.561Z,99089.78
2022-10-11T11:12:03.332Z,99089.06
2022-10-11T11:14:46.076Z,99094.94
2022-10-11T11:17:28.131Z,99089.00
2022-10-11T11:20:11.593Z,99077.97
2022-10-11T11:22:52.423Z,99082.28
2022-10-11T11:25:33.263Z,99083.56
2022-10-11T11:28:17.758Z,99074.16
2022-10-11T11:30:57.696Z,99085.94
2022-10-11T11:33:43.064Z,99080.44
2022-10-11T11:36:18.989Z,99073.75
2022-10-11T11:38:54.168Z,99066.25
2022-10-11T11:41:31.517Z,99064.75
2022-10-11T11:44:05.281Z,99069.47
2022-10-11T11:46:38.540Z,99066.34
2022-10-11T11:49:18.291Z,99070.28
2022-10-11T11:51:49.265Z,99075.81
2022-10-11T11:54:29.769Z,99060.84
2022-10-11T11:57:10.626Z,99073.38
2022-10-11T11:59:50.730Z,99069.41
2022-10-11T12:02:53.764Z,99068.28
2022-10-11T12:05:26.888Z,99073.38
2022-10-11T12:08:00.913Z,99071.03
2022-10-11T12:10:35.442Z,99067.88
2022-10-11T12:13:27.219Z,99060.38
2022-10-11T12:16:12.516Z,99067.09
2022-10-11T12:18:54.951Z,99073.75
2022-10-11T12:21:32.826Z,99068.66
2022-10-11T12:24:03.785Z,99065.53
2022-10-11T12:26:39.090Z,99063.97
2022-10-11T12:29:29.245Z,99058.03
2022-10-11T12:32:29.145Z,99059.63
2022-10-11T12:35:28.634Z,99059.66
2022-10-11T12:38:07.831Z,99058.88
2022-10-11T12:40:42.511Z,99053.75
2022-10-11T12:43:26.745Z,99058.94
2022-10-11T12:45:59.191Z,99056.22
2022-10-11T12:48:48.753Z,99052.69
2022-10-11T12:51:30.958Z,99048.41
2022-10-11T12:54:36.890Z,99053.13
2022-10-11T12:57:35.946Z,99048.81
2022-10-11T13:00:20.775Z,99048.06
2022-10-11T13:02:53.332Z,99044.56
2022-10-11T13:05:27.423Z,99044.16
2022-10-11T13:08:00.576Z,99050.09
2022-10-11T13:10:33.636Z,99043.38
2022-10-11T13:13:04.843Z,99043.38
2022-10-11T13:15:34.991Z,99039.88
2022-10-11T13:18:07.419Z,99040.25
2022-10-11T13:20:40.305Z,99034.34
2022-10-11T13:23:24.757Z,99039.06
2022-10-11T13:25:55.753Z,99032.72
2022-10-11T13:28:26.499Z,99021.72
2022-10-11T13:30:59.501Z,99026.41
2022-10-11T13:33:35.225Z,99020.09
2022-10-11T13:36:08.947Z,99029.16
2022-10-11T13:38:40.815Z,99033.91
2022-10-11T13:41:12.860Z,99036.72
2022-10-11T13:43:43.028Z,99038.66
2022-10-11T13:46:22.795Z,99038.28
2022-10-11T13:49:07.380Z,99041.44
2022-10-11T13:51:39.459Z,99029.59
2022-10-11T13:54:13.773Z,99036.72
2022-10-11T13:56:48.426Z,99035.13
2022-10-11T13:59:22.227Z,99032.38
2022-10-11T14:01:56.718Z,99026.44
2022-10-11T14:04:30.246Z,99031.56
2022-10-11T14:07:02.634Z,99028.81
2022-10-11T14:09:35.906Z,99032.75
2022-10-11T14:12:31.148Z,99025.66
2022-10-11T14:15:01.907Z,99034.72
2022-10-11T14:17:43.414Z,99032.38
2022-10-11T14:20:23.856Z,99028.44
2022-10-11T14:22:53.946Z,99031.97
2022-10-11T14:25:24.569Z,99035.47
2022-10-11T14:27:54.502Z,99031.09
2022-10-11T14:30:27.603Z,99031.47
2022-10-11T14:33:02.101Z,99033.03
2022-10-11T14:35:35.694Z,99027.13
2022-10-11T14:38:05.448Z,99027.16
2022-10-11T14:40:35.413Z,99029.47
2022-10-11T14:43:05.226Z,99027.91
2022-10-11T14:45:34.993Z,99024.38
2022-10-11T14:48:04.771Z,99037.34
2022-10-11T14:50:42.654Z,99023.94
2022-10-11T14:53:13.843Z,99029.44
2022-10-11T14:55:44.758Z,99029.84
2022-10-11T14:58:18.475Z,99034.53
2022-10-11T15:00:50.495Z,99027.84
2022-10-11T15:03:20.521Z,99024.66
2022-10-11T15:05:53.407Z,99031.00
2022-10-11T15:08:23.295Z,99031.78
2022-10-11T15:10:53.734Z,99030.13
2022-10-11T15:13:23.664Z,99021.50
2022-10-11T15:15:53.389Z,99030.53
2022-10-11T15:18:23.437Z,99020.63
2022-10-11T15:20:56.250Z,99023.06
2022-10-11T15:23:26.255Z,99022.19
2022-10-11T15:25:56.014Z,99017.50
2022-10-11T15:28:29.566Z,99019.88
2022-10-11T15:30:59.876Z,99019.06
2022-10-11T15:33:29.917Z,99020.25
2022-10-11T15:36:02.604Z,99012.78
2022-10-11T15:38:32.939Z,99013.50
2022-10-11T15:41:03.912Z,99015.06
2022-10-11T15:43:34.018Z,99015.06
2022-10-11T15:46:05.414Z,99013.50
2022-10-11T15:48:35.474Z,99012.72
2022-10-11T15:51:08.911Z,99007.94
2022-10-11T15:53:38.715Z,99009.56
2022-10-11T15:56:10.450Z,99008.31
2022-10-11T15:58:42.436Z,99012.25
2022-10-11T16:01:16.645Z,99002.75
2022-10-11T16:03:47.210Z,99010.28
2022-10-11T16:06:20.275Z,99013.66
2022-10-11T16:08:50.442Z,99017.25
2022-10-11T16:11:20.378Z,99010.19
2022-10-11T16:13:51.667Z,99008.19
2022-10-11T16:16:21.913Z,99005.41
2022-10-11T16:18:53.025Z,99005.41
2022-10-11T16:21:25.687Z,99000.59
2022-10-11T16:23:55.374Z,99009.25
2022-10-11T16:26:25.119Z,99007.22
2022-10-11T16:28:56.878Z,99012.34
2022-10-11T16:31:26.706Z,99011.53
2022-10-11T16:33:57.240Z,99012.34
2022-10-11T16:36:36.620Z,99019.84
2022-10-11T16:39:09.830Z,99018.94
2022-10-11T16:41:39.861Z,99022.88
2022-10-11T16:44:14.797Z,99021.31
2022-10-11T16:46:47.967Z,99017.81
2022-10-11T16:49:18.258Z,99017.78
2022-10-11T16:51:50.984Z,99021.69
2022-10-11T16:54:21.411Z,99021.75
2022-10-11T16:56:52.098Z,99025.63
2022-10-11T16:59:22.878Z,99022.44
2022-10-11T17:01:52.779Z,99022.00
2022-10-11T17:04:22.536Z,99034.13
2022-10-11T17:06:55.372Z,99026.97
2022-10-11T17:09:25.324Z,99024.59
2022-10-11T17:11:55.143Z,99026.13
2022-10-11T17:14:24.823Z,99027.69
2022-10-11T17:16:54.603Z,99026.09
2022-10-11T17:19:24.255Z,99037.03
2022-10-11T17:21:56.700Z,99029.88
2022-10-11T17:24:26.666Z,99033.38
2022-10-11T17:26:56.595Z,99022.78
2022-10-11T17:29:26.403Z,99028.34
2022-10-11T17:31:56.274Z,99020.88
2022-10-11T17:34:26.192Z,99027.47
2022-10-11T17:36:58.718Z,99024.34
2022-10-11T17:39:28.559Z,99018.00
2022-10-11T17:41:58.552Z,99025.06
2022-10-11T17:44:28.364Z,99019.19
2022-10-11T17:46:58.053Z,99013.94
2022-10-11T17:49:27.825Z,99016.38
2022-10-11T17:52:00.115Z,99017.06
2022-10-11T17:54:30.011Z,99016.69
2022-10-11T17:56:59.972Z,99024.91
2022-10-11T17:59:32.928Z,99025.03
2022-10-11T18:02:02.771Z,99031.25
2022-10-11T18:04:32.497Z,99034.72
2022-10-11T18:07:04.825Z,99041.03
2022-10-11T18:09:35.253Z,99042.22
2022-10-11T18:12:04.999Z,99043.66
2022-10-11T18:14:34.867Z,99049.59
2022-10-11T18:17:04.622Z,99045.94
2022-10-11T18:19:34.356Z,99039.97
2022-10-11T18:22:07.387Z,99045.66
2022-10-11T18:24:37.748Z,99044.00
2022-10-11T18:27:07.640Z,99047.22
2022-10-11T18:29:37.299Z,99035.47
2022-10-11T18:32:07.130Z,99040.97
2022-10-11T18:34:36.789Z,99036.66
2022-10-11T18:37:09.034Z,99030.06
2022-10-11T18:39:39.049Z,99040.75
2022-10-11T18:42:09.881Z,99033.22
2022-10-11T18:44:39.724Z,99037.44
2022-10-11T18:47:09.484Z,99028.75
2022-10-11T18:49:39.203Z,99030.03
2022-10-11T18:52:11.581Z,99033.13
2022-10-11T18:54:41.542Z,99033.91
2022-10-11T18:57:11.283Z,99032.81
2022-10-11T18:59:41.144Z,99030.06
2022-10-11T19:02:13.206Z,99027.31
2022-10-11T19:04:43.139Z,99038.00
2022-10-11T19:07:15.482Z,99031.25
2022-10-11T19:09:47.096Z,99037.56
2022-10-11T19:12:17.602Z,99027.81
2022-10-11T19:14:47.408Z,99028.19
2022-10-11T19:17:17.108Z,99022.28
2022-10-11T19:19:48.692Z,99020.72
2022-10-11T19:22:20.987Z,99026.25
2022-10-11T19:24:50.711Z,99030.22
2022-10-11T19:27:20.479Z,99029.03
2022-10-11T19:29:50.907Z,99026.59
2022-10-11T19:32:20.631Z,99028.56
2022-10-11T19:34:50.349Z,99033.31
2022-10-11T19:37:22.660Z,99027.56
2022-10-11T19:39:52.422Z,99024.72
2022-10-11T19:42:22.278Z,99028.66
2022-10-11T19:44:51.932Z,99017.22
2022-10-11T19:47:21.583Z,99023.25
2022-10-11T19:49:51.248Z,99026.69
2022-10-11T19:52:23.523Z,99024.38
2022-10-11T19:54:53.369Z,99028.69
2022-10-11T19:57:23.187Z,99023.50
2022-10-11T19:59:52.859Z,99032.28
2022-10-11T20:02:22.514Z,99025.03
2022-10-11T20:04:53.300Z,99039.69
2022-10-11T20:07:25.703Z,99037.31
2022-10-11T20:09:55.360Z,99038.47
2022-10-11T20:12:28.926Z,99034.50
2022-10-11T20:14:58.857Z,99032.53
2022-10-11T20:17:48.415Z,99039.97
2022-10-11T20:20:19.319Z,99030.53
2022-10-11T20:22:53.650Z,99038.09
2022-10-11T20:25:23.619Z,99038.47
2022-10-11T20:27:53.358Z,99036.91
2022-10-11T20:30:23.092Z,99038.88
2022-10-11T20:32:53.014Z,99046.38
2022-10-11T20:35:22.801Z,99045.94
2022-10-11T20:37:55.346Z,99040.41
2022-10-11T20:40:25.270Z,99055.78
2022-10-11T20:42:55.103Z,99044.38
2022-10-11T20:45:26.040Z,99030.94
2022-10-11T20:47:56.353Z,99044.66
2022-10-11T20:50:26.262Z,99037.50
2022-10-11T20:52:58.729Z,99043.75
2022-10-11T20:55:28.581Z,99045.31
2022-10-11T20:57:58.396Z,99047.63
2022-10-11T21:00:28.605Z,99040.59
2022-10-11T21:03:01.408Z,99042.72
2022-10-11T21:05:31.393Z,99035.25
2022-10-11T21:08:06.405Z,99041.03
2022-10-11T21:10:36.522Z,99041.38
2022-10-11T21:13:07.411Z,99042.94
2022-10-11T21:15:37.156Z,99047.28
2022-10-11T21:18:07.150Z,99042.22
2022-10-11T21:20:42.212Z,99042.22
2022-10-11T21:23:16.096Z,99043.06
2022-10-11T21:25:45.767Z,99043.91
2022-10-11T21:28:15.573Z,99043.34
2022-10-11T21:30:45.426Z,99047.63
2022-10-11T21:33:15.149Z,99045.63
2022-10-11T21:35:44.847Z,99041.25
2022-10-11T21:38:17.147Z,99041.22
2022-10-11T21:40:47.120Z,99027.41
2022-10-11T21:43:16.781Z,99034.25
2022-10-11T21:45:46.488Z,99035.06
2022-10-11T21:48:16.159Z,99031.91
2022-10-11T21:50:45.831Z,99031.16
2022-10-11T21:53:18.114Z,99034.50
2022-10-11T21:55:47.872Z,99029.78
2022-10-11T21:58:17.565Z,99031.38
2022-10-11T22:00:49.887Z,99026.13
2022-10-11T22:03:19.747Z,99034.31
2022-10-11T22:05:50.642Z,99029.28
2022-10-11T22:08:22.956Z,99026.81
2022-10-11T22:10:56.769Z,99025.66
2022-10-11T22:13:27.042Z,99034.13
2022-10-11T22:15:57.540Z,99026.31
2022-10-11T22:18:32.230Z,99025.16
2022-10-11T22:21:07.781Z,99025.19
2022-10-11T22:23:40.051Z,99024.31
2022-10-11T22:26:11.939Z,99017.06
2022-10-11T22:28:41.941Z,99010.81
2022-10-11T22:31:13.171Z,99008.94
2022-10-11T22:33:42.983Z,99001.88
2022-10-11T22:36:16.663Z,99004.34
2022-10-11T22:38:49.714Z,99003.22
2022-10-11T22:41:19.383Z,99004.34
2022-10-11T22:43:49.002Z,99000.91
2022-10-11T22:46:18.784Z,99009.06
2022-10-11T22:48:48.449Z,99002.00
2022-10-11T22:51:18.164Z,99003.06
2022-10-11T22:53:50.470Z,99002.69
2022-10-11T22:56:20.097Z,99001.78
2022-10-11T22:58:49.720Z,99014.41
2022-10-11T23:01:19.423Z,99008.59
2022-10-11T23:03:51.194Z,99008.69
2022-10-11T23:06:20.960Z,99003.97
2022-10-11T23:08:53.244Z,99007.00
2022-10-11T23:11:22.946Z,99001.91
2022-10-11T23:13:52.594Z,98998.41
2022-10-11T23:16:22.206Z,98999.59
2022-10-11T23:18:55.140Z,98995.19
2022-10-11T23:21:25.052Z,98997.63
2022-10-11T23:23:57.976Z,98998.03
2022-10-11T23:26:27.542Z,98997.19
2022-10-11T23:28:58.057Z,98995.16
2022-10-11T23:31:27.735Z,98991.47
2022-10-11T23:33:57.522Z,98988.94
2022-10-11T23:36:28.577Z,98984.19
2022-10-11T23:39:01.838Z,98988.06
2022-10-11T23:41:33.104Z,98989.13
2022-10-11T23:44:02.917Z,98997.03
2022-10-11T23:46:32.628Z,99002.00
2022-10-11T23:49:02.308Z,98998.47
2022-10-11T23:51:32.027Z,98999.25
2022-10-11T23:54:04.311Z,98997.03
2022-10-11T23:56:34.232Z,98993.72
2022-10-11T23:59:03.949Z,98993.22
